Liberal Mid-America Regional Airport
KLBL : now visible

Airfield :











YOU CAN JOIN US ON...

 
LOGIN :

Register | Disclaimer

   EN    FR    IT 

 









Legend :    VFR   Marginal VFR   IFR   Intensive IFR   Very Intensive IFR
Visi :
Ceiling :
>= 8 km
>= 3000ft
5 to 8 km
1000 to 3000 ft
1500m to 5 km
500 to 1000 ft
800 to 1500m
200 to 500 ft
< 800m
< 200 ft
Symbols :   Thunderstorms  Fog  Heavy snow  Heavy precipitations  Wind > 20 kt






- Airport Elevation : 2885 ft
- IATA code : LBL


KLBL - Liberal Mid-America Regional

CURRENT METAR :
  • 111156Z AUTO 10003KT 10SM CLR 17/15 A3004 RMK AO2 SLP141 T01670150 10194 20161 53004

EXPIRED METARs :
  • 111056Z AUTO 10005KT 10SM CLR 16/15 A3003 RMK AO2 SLP132 T01610150
  • 110956Z AUTO 12004KT 10SM CLR 17/16 A3002 RMK AO2 SLP129 T01670156

TAF KLBL
Valid from the 11 at 12:00 until the 12 at 12:00 UTC


111120Z 1112/1212 12004KT P6SM SKC
FM111900 17016KT P6SM SKC
FM120000 15008KT P6SM BKN200
KZKC FIR / North America



MET'MAP, your aeronautical weather chart ! - Copyright ORBIFLY December 2007 - Disclaimer

ORBIFLY MET'MAP TEAM :

Programming & Development : Alexandra Zaïnal
Concept & original design : Baudouin d'Aumeries
Assistance for programming : Marc-Olivier Méhu
Technical & hardware support : Manuel Goepfert

Contact : metmap@orbifly.com




SOURCES & CREDITS :

   NOAA       Earth
Advisory